createdAt,value
2018-03-18T00:00:42.866Z,99673.29
2018-03-18T00:01:56.201Z,99681.89
2018-03-18T00:02:58.700Z,99697.03
2018-03-18T00:04:01.220Z,99689.52
2018-03-18T00:05:03.717Z,99691.08
2018-03-18T00:06:06.202Z,99688.09
2018-03-18T00:07:08.691Z,99693.55
2018-03-18T00:08:11.190Z,99686.84
2018-03-18T00:09:13.690Z,99684.44
2018-03-18T00:10:16.180Z,99690.12
2018-03-18T00:11:18.761Z,99691.45
2018-03-18T00:12:21.222Z,99686.09
2018-03-18T00:13:23.731Z,99695.27
2018-03-18T00:14:26.276Z,99687.76
2018-03-18T00:15:28.780Z,99693.03
2018-03-18T00:16:31.278Z,99693.20
2018-03-18T00:17:33.811Z,99693.20
2018-03-18T00:18:36.381Z,99692.98
2018-03-18T00:19:38.904Z,99692.98
2018-03-18T00:20:41.423Z,99685.88
2018-03-18T00:21:43.938Z,99686.45
2018-03-18T00:22:46.432Z,99691.88
2018-03-18T00:23:48.950Z,99689.30
2018-03-18T00:24:51.471Z,99694.52
2018-03-18T00:25:53.982Z,99692.52
2018-03-18T00:26:56.480Z,99696.16
2018-03-18T00:27:58.995Z,99692.78
2018-03-18T00:29:01.502Z,99702.92
2018-03-18T00:30:04.017Z,99698.75
2018-03-18T00:31:06.526Z,99697.95
2018-03-18T00:32:09.038Z,99698.70
2018-03-18T00:33:11.523Z,99701.45
2018-03-18T00:34:14.034Z,99704.72
2018-03-18T00:35:16.556Z,99698.02
2018-03-18T00:36:19.039Z,99696.02
2018-03-18T00:37:21.551Z,99696.50
2018-03-18T00:38:24.052Z,99691.17
2018-03-18T00:39:26.540Z,99695.08
2018-03-18T00:40:29.043Z,99689.34
2018-03-18T00:41:31.551Z,99691.88
2018-03-18T00:42:34.057Z,99693.02
2018-03-18T00:43:36.574Z,99691.41
2018-03-18T00:44:39.086Z,99688.22
2018-03-18T00:45:41.594Z,99689.77
2018-03-18T00:46:44.102Z,99692.86
2018-03-18T00:47:46.600Z,99695.38
2018-03-18T00:48:49.101Z,99694.35
2018-03-18T00:49:51.639Z,99691.83
2018-03-18T00:50:54.152Z,99699.95
2018-03-18T00:52:01.540Z,99698.12
2018-03-18T00:53:04.079Z,99700.89
2018-03-18T00:54:06.579Z,99698.00
2018-03-18T00:55:09.080Z,99701.71
2018-03-18T00:56:11.596Z,99698.83
2018-03-18T00:57:14.093Z,99704.03
2018-03-18T00:58:16.602Z,99706.58
2018-03-18T00:59:19.125Z,99701.00
2018-03-18T01:00:21.617Z,99702.88
2018-03-18T01:01:24.126Z,99705.38
2018-03-18T01:02:26.624Z,99704.31
2018-03-18T01:03:29.138Z,99703.96
2018-03-18T01:04:31.636Z,99701.21
2018-03-18T01:05:34.142Z,99704.14
2018-03-18T01:06:36.678Z,99708.67
2018-03-18T01:07:39.190Z,99700.23
2018-03-18T01:08:41.685Z,99708.27
2018-03-18T01:09:44.200Z,99700.02
2018-03-18T01:10:46.696Z,99703.73
2018-03-18T01:11:49.249Z,99698.01
2018-03-18T01:12:51.750Z,99696.37
2018-03-18T01:13:54.264Z,99699.30
2018-03-18T01:14:56.769Z,99701.25
2018-03-18T01:15:59.298Z,99703.20
2018-03-18T01:17:01.815Z,99700.98
2018-03-18T01:18:04.324Z,99704.30
2018-03-18T01:19:06.806Z,99701.33
2018-03-18T01:20:09.316Z,99702.88
2018-03-18T01:21:11.845Z,99704.20
2018-03-18T01:22:14.369Z,99695.72
2018-03-18T01:23:16.865Z,99701.00
2018-03-18T01:24:19.351Z,99697.22
2018-03-18T01:25:21.870Z,99695.80
2018-03-18T01:26:24.376Z,99697.92
2018-03-18T01:27:26.882Z,99701.16
2018-03-18T01:28:29.410Z,99698.77
2018-03-18T01:29:31.901Z,99702.09
2018-03-18T01:30:34.420Z,99699.34
2018-03-18T01:31:36.981Z,99697.03
2018-03-18T01:32:39.499Z,99695.63
2018-03-18T01:33:42.010Z,99699.27
2018-03-18T01:34:44.509Z,99694.90
2018-03-18T01:35:46.994Z,99700.94
2018-03-18T01:36:49.506Z,99698.91
2018-03-18T01:37:52.011Z,99691.73
2018-03-18T01:38:54.524Z,99699.33
2018-03-18T01:39:57.032Z,99696.89
2018-03-18T01:40:59.537Z,99697.11
2018-03-18T01:42:02.044Z,99697.73
2018-03-18T01:43:04.590Z,99705.06
2018-03-18T01:44:07.100Z,99700.54
2018-03-18T01:45:09.610Z,99708.39
2018-03-18T01:46:12.126Z,99696.59
2018-03-18T01:47:14.636Z,99698.71
2018-03-18T01:48:17.156Z,99696.94
2018-03-18T01:49:19.652Z,99688.86
2018-03-18T01:50:22.161Z,99696.14
2018-03-18T01:51:24.688Z,99700.44
2018-03-18T01:52:27.174Z,99697.86
2018-03-18T01:53:29.699Z,99696.01
2018-03-18T01:54:32.237Z,99692.62
2018-03-18T01:55:34.736Z,99697.91
2018-03-18T01:56:37.223Z,99693.33
2018-03-18T01:57:39.720Z,99693.50
2018-03-18T01:58:42.223Z,99687.20
2018-03-18T01:59:44.718Z,99691.50
2018-03-18T02:00:47.220Z,99690.48
2018-03-18T02:01:49.720Z,99693.36
2018-03-18T02:02:52.216Z,99688.43
2018-03-18T02:03:54.740Z,99687.00
2018-03-18T02:04:57.264Z,99684.97
2018-03-18T02:05:59.746Z,99683.95
2018-03-18T02:07:02.250Z,99686.13
2018-03-18T02:08:04.767Z,99688.83
2018-03-18T02:09:07.304Z,99683.49
2018-03-18T02:10:09.828Z,99690.65
2018-03-18T02:11:12.322Z,99687.23
2018-03-18T02:12:14.816Z,99691.28
2018-03-18T02:13:17.331Z,99679.50
2018-03-18T02:14:19.847Z,99679.22
2018-03-18T02:15:22.348Z,99667.95
2018-03-18T02:16:24.848Z,99676.48
2018-03-18T02:17:27.360Z,99674.63
2018-03-18T02:18:29.842Z,99677.69
2018-03-18T02:19:32.379Z,99682.84
2018-03-18T02:20:34.870Z,99673.48
2018-03-18T02:21:37.361Z,99677.30
2018-03-18T02:22:39.860Z,99675.17
2018-03-18T02:23:42.354Z,99674.19
2018-03-18T02:24:44.893Z,99671.03
2018-03-18T02:25:47.374Z,99675.92
2018-03-18T02:26:49.882Z,99678.45
2018-03-18T02:27:52.370Z,99680.36
2018-03-18T02:28:54.888Z,99671.88
2018-03-18T02:29:57.427Z,99676.13
2018-03-18T02:30:59.939Z,99675.28
2018-03-18T02:32:02.455Z,99672.23
2018-03-18T02:33:04.956Z,99668.45
2018-03-18T02:34:07.453Z,99671.16
2018-03-18T02:35:09.971Z,99673.47
2018-03-18T02:36:12.455Z,99672.03
2018-03-18T02:37:14.981Z,99675.31
2018-03-18T02:38:17.467Z,99669.94
2018-03-18T02:39:19.996Z,99674.79
2018-03-18T02:40:22.536Z,99679.27
2018-03-18T02:41:25.062Z,99669.59
2018-03-18T02:42:27.568Z,99673.27
2018-03-18T02:43:30.069Z,99672.42
2018-03-18T02:44:32.569Z,99675.70
2018-03-18T02:45:35.120Z,99673.13
2018-03-18T02:46:37.617Z,99674.45
2018-03-18T02:47:40.134Z,99674.50
2018-03-18T02:48:42.619Z,99668.29
2018-03-18T02:49:45.136Z,99672.16
2018-03-18T02:50:47.672Z,99668.79
2018-03-18T02:51:50.190Z,99667.51
2018-03-18T02:52:52.685Z,99672.13
2018-03-18T02:53:55.192Z,99674.23
2018-03-18T02:54:57.690Z,99674.98
2018-03-18T02:56:00.196Z,99673.25
2018-03-18T02:57:02.680Z,99672.72
2018-03-18T02:58:05.166Z,99667.84
2018-03-18T02:59:07.691Z,99663.36
2018-03-18T03:00:10.232Z,99670.23
2018-03-18T03:01:12.762Z,99667.09
2018-03-18T03:02:15.250Z,99670.19
2018-03-18T03:03:17.744Z,99671.75
2018-03-18T03:04:20.261Z,99673.48
2018-03-18T03:05:22.902Z,99669.47
2018-03-18T03:06:25.448Z,99678.08
2018-03-18T03:07:27.943Z,99670.90
2018-03-18T03:08:30.454Z,99667.70
2018-03-18T03:09:32.956Z,99668.85
2018-03-18T03:10:35.435Z,99671.78
2018-03-18T03:11:37.963Z,99670.94
2018-03-18T03:12:40.446Z,99672.44
2018-03-18T03:13:42.946Z,99675.31
2018-03-18T03:14:45.461Z,99672.34
2018-03-18T03:15:47.973Z,99676.56
2018-03-18T03:16:50.513Z,99666.31
2018-03-18T03:17:53.047Z,99666.84
2018-03-18T03:18:55.613Z,99663.86
2018-03-18T03:19:58.108Z,99665.36
2018-03-18T03:21:00.632Z,99671.39
2018-03-18T03:22:03.129Z,99672.14
2018-03-18T03:23:05.633Z,99673.87
2018-03-18T03:24:08.128Z,99669.16
2018-03-18T03:25:10.642Z,99669.79
2018-03-18T03:26:13.164Z,99666.97
2018-03-18T03:27:15.654Z,99670.34
2018-03-18T03:28:18.145Z,99664.75
2018-03-18T03:29:20.679Z,99664.67
2018-03-18T03:30:23.198Z,99665.75
2018-03-18T03:31:25.743Z,99669.92
2018-03-18T03:32:28.249Z,99662.33
2018-03-18T03:33:30.749Z,99670.41
2018-03-18T03:34:33.248Z,99668.46
2018-03-18T03:35:35.742Z,99664.51
2018-03-18T03:36:38.319Z,99665.70
2018-03-18T03:37:40.830Z,99664.51
2018-03-18T03:38:43.329Z,99661.75
2018-03-18T03:39:45.832Z,99661.75
2018-03-18T03:40:48.314Z,99667.44
2018-03-18T03:41:50.851Z,99666.02
2018-03-18T03:42:53.366Z,99666.95
2018-03-18T03:43:55.870Z,99673.78
2018-03-18T03:44:58.353Z,99670.41
2018-03-18T03:46:00.875Z,99667.34
2018-03-18T03:47:03.409Z,99663.97
2018-03-18T03:48:05.903Z,99674.31
2018-03-18T03:49:08.410Z,99670.31
2018-03-18T03:50:10.898Z,99671.81
2018-03-18T03:51:13.389Z,99668.39
2018-03-18T03:52:15.905Z,99667.51
2018-03-18T03:53:18.398Z,99669.98
2018-03-18T03:54:20.911Z,99678.59
2018-03-18T03:55:23.426Z,99681.47
2018-03-18T03:56:25.914Z,99674.72
2018-03-18T03:57:28.430Z,99680.34
2018-03-18T03:58:30.910Z,99680.70
2018-03-18T03:59:33.390Z,99677.87
2018-03-18T04:00:35.880Z,99679.02
2018-03-18T04:01:38.367Z,99680.70
2018-03-18T04:02:40.898Z,99675.25
2018-03-18T04:03:43.404Z,99673.84
2018-03-18T04:04:45.911Z,99676.02
2018-03-18T04:05:48.408Z,99678.12
2018-03-18T04:06:50.900Z,99668.00
2018-03-18T04:07:53.428Z,99673.03
2018-03-18T04:08:55.929Z,99671.55
2018-03-18T04:09:58.488Z,99676.36
2018-03-18T04:11:01.004Z,99673.65
2018-03-18T04:12:03.504Z,99677.25
2018-03-18T04:13:06.028Z,99670.02
2018-03-18T04:14:08.518Z,99668.64
2018-03-18T04:15:11.020Z,99674.37
2018-03-18T04:16:13.526Z,99676.14
2018-03-18T04:17:16.028Z,99675.52
2018-03-18T04:18:18.560Z,99673.52
2018-03-18T04:19:21.128Z,99682.53
2018-03-18T04:20:23.611Z,99675.42
2018-03-18T04:21:26.094Z,99673.78
2018-03-18T04:22:28.578Z,99680.27
2018-03-18T04:23:31.093Z,99679.16
2018-03-18T04:24:33.579Z,99677.33
2018-03-18T04:25:36.076Z,99672.36
2018-03-18T04:26:38.584Z,99676.79
2018-03-18T04:27:41.100Z,99673.19
2018-03-18T04:28:43.621Z,99679.22
2018-03-18T04:29:46.116Z,99682.07
2018-03-18T04:30:48.677Z,99683.58
2018-03-18T04:31:51.186Z,99681.17
2018-03-18T04:32:53.683Z,99691.55
2018-03-18T04:33:56.261Z,99685.66
2018-03-18T04:34:58.766Z,99690.05
2018-03-18T04:36:01.302Z,99691.30
2018-03-18T04:37:03.772Z,99688.33
2018-03-18T04:38:06.254Z,99684.34
2018-03-18T04:39:08.771Z,99682.61
2018-03-18T04:40:11.272Z,99689.77
2018-03-18T04:41:13.757Z,99688.48
2018-03-18T04:42:16.254Z,99681.08
2018-03-18T04:43:18.762Z,99688.41
2018-03-18T04:44:21.294Z,99689.69
2018-03-18T04:45:23.793Z,99686.35
2018-03-18T04:46:26.308Z,99688.35
2018-03-18T04:47:28.813Z,99691.73
2018-03-18T04:48:31.314Z,99686.17
2018-03-18T04:49:33.843Z,99698.17
2018-03-18T04:50:36.355Z,99699.50
2018-03-18T04:51:38.842Z,99692.71
2018-03-18T04:52:41.350Z,99691.69
2018-03-18T04:53:43.837Z,99693.20
2018-03-18T04:54:46.367Z,99695.90
2018-03-18T04:55:48.887Z,99696.48
2018-03-18T04:56:51.449Z,99694.65
2018-03-18T04:57:53.958Z,99697.76
2018-03-18T04:58:56.482Z,99687.42
2018-03-18T04:59:58.983Z,99687.37
2018-03-18T05:01:01.468Z,99693.00
2018-03-18T05:02:03.978Z,99696.28
2018-03-18T05:03:06.489Z,99689.93
2018-03-18T05:04:09.015Z,99695.38
2018-03-18T05:05:11.518Z,99697.52
2018-03-18T05:06:14.002Z,99699.06
2018-03-18T05:07:16.487Z,99700.62
2018-03-18T05:08:18.976Z,99692.18
2018-03-18T05:09:21.493Z,99697.39
2018-03-18T05:10:24.026Z,99691.98
2018-03-18T05:11:26.562Z,99693.45
2018-03-18T05:12:29.054Z,99700.55
2018-03-18T05:13:31.556Z,99701.18
2018-03-18T05:14:34.042Z,99699.95
2018-03-18T05:15:36.551Z,99698.66
2018-03-18T05:16:39.049Z,99697.55
2018-03-18T05:17:41.561Z,99703.09
2018-03-18T05:18:44.060Z,99703.72
2018-03-18T05:19:46.552Z,99702.56
2018-03-18T05:20:49.056Z,99701.99
2018-03-18T05:21:51.546Z,99703.14
2018-03-18T05:22:54.063Z,99697.46
2018-03-18T05:23:56.565Z,99699.99
2018-03-18T05:24:59.093Z,99707.45
2018-03-18T05:26:01.613Z,99694.61
2018-03-18T05:27:04.115Z,99700.05
2018-03-18T05:28:06.626Z,99697.06
2018-03-18T05:29:09.132Z,99706.25
2018-03-18T05:30:11.617Z,99693.20
2018-03-18T05:31:14.114Z,99696.08
2018-03-18T05:32:16.615Z,99693.27
2018-03-18T05:33:19.112Z,99701.03
2018-03-18T05:34:21.598Z,99703.89
2018-03-18T05:35:24.079Z,99704.23
2018-03-18T05:36:26.613Z,99712.05
2018-03-18T05:37:29.108Z,99709.24
2018-03-18T05:38:31.742Z,99707.64
2018-03-18T05:39:34.325Z,99711.14
2018-03-18T05:40:36.828Z,99715.45
2018-03-18T05:41:39.348Z,99712.70
2018-03-18T05:42:41.862Z,99714.34
2018-03-18T05:43:44.362Z,99718.35
2018-03-18T05:44:46.875Z,99716.90
2018-03-18T05:45:49.358Z,99717.52
2018-03-18T05:46:51.866Z,99716.29
2018-03-18T05:47:54.372Z,99716.24
2018-03-18T05:48:56.894Z,99732.06
2018-03-18T05:49:59.417Z,99717.53
2018-03-18T05:51:01.930Z,99723.36
2018-03-18T05:52:04.433Z,99737.76
2018-03-18T05:53:06.988Z,99727.94
2018-03-18T05:54:09.499Z,99724.66
2018-03-18T05:55:12.000Z,99724.44
2018-03-18T05:56:14.496Z,99733.67
2018-03-18T05:57:17.049Z,99731.72
2018-03-18T05:58:19.578Z,99737.19
2018-03-18T05:59:22.062Z,99734.78
2018-03-18T06:00:24.569Z,99735.13
2018-03-18T06:01:27.086Z,99743.34
2018-03-18T06:02:29.616Z,99743.88
2018-03-18T06:03:32.106Z,99747.16
2018-03-18T06:04:34.604Z,99744.50
2018-03-18T06:05:37.101Z,99746.98
2018-03-18T06:06:39.605Z,99742.58
2018-03-18T06:07:42.138Z,99752.56
2018-03-18T06:08:46.002Z,99748.56
2018-03-18T06:09:48.487Z,99749.09
2018-03-18T06:10:50.988Z,99753.48
2018-03-18T06:11:53.529Z,99752.45
2018-03-18T06:12:56.107Z,99755.96
2018-03-18T06:13:58.586Z,99748.10
2018-03-18T06:15:01.106Z,99758.67
2018-03-18T06:16:03.633Z,99754.47
2018-03-18T06:17:06.160Z,99758.52
2018-03-18T06:18:08.690Z,99756.09
2018-03-18T06:19:11.192Z,99759.59
2018-03-18T06:20:13.688Z,99763.88
2018-03-18T06:21:16.178Z,99751.35
2018-03-18T06:22:18.680Z,99768.10
2018-03-18T06:23:21.200Z,99764.02
2018-03-18T06:24:24.898Z,99765.65
2018-03-18T06:25:27.404Z,99763.30
2018-03-18T06:26:29.922Z,99771.95
2018-03-18T06:27:32.424Z,99768.15
2018-03-18T06:28:34.935Z,99772.45
2018-03-18T06:29:37.441Z,99763.17
2018-03-18T06:30:39.926Z,99769.42
2018-03-18T06:31:42.424Z,99772.13
2018-03-18T06:32:44.916Z,99775.47
2018-03-18T06:33:47.440Z,99767.55
2018-03-18T06:34:49.923Z,99769.86
2018-03-18T06:35:52.423Z,99770.96
2018-03-18T06:36:54.906Z,99771.71
2018-03-18T06:37:57.402Z,99772.78
2018-03-18T06:38:59.916Z,99772.69
2018-03-18T06:40:02.405Z,99773.39
2018-03-18T06:41:04.927Z,99779.82
2018-03-18T06:42:07.418Z,99773.23
2018-03-18T06:43:10.472Z,99778.78
2018-03-18T06:44:13.005Z,99776.73
2018-03-18T06:45:15.514Z,99772.91
2018-03-18T06:46:18.003Z,99777.25
2018-03-18T06:47:20.496Z,99772.95
2018-03-18T06:48:23.008Z,99773.28
2018-03-18T06:49:25.517Z,99781.72
2018-03-18T06:50:28.021Z,99780.05
2018-03-18T06:51:30.534Z,99776.23
2018-03-18T06:52:33.031Z,99776.69
2018-03-18T06:53:35.536Z,99782.10
2018-03-18T06:54:38.039Z,99785.13
2018-03-18T06:55:40.522Z,99781.22
2018-03-18T06:56:43.025Z,99783.00
2018-03-18T06:57:45.564Z,99778.88
2018-03-18T06:58:48.057Z,99790.28
2018-03-18T06:59:50.586Z,99781.40
2018-03-18T07:00:53.095Z,99788.28
2018-03-18T07:01:55.583Z,99791.97
2018-03-18T07:02:58.103Z,99790.11
2018-03-18T07:04:00.603Z,99791.08
2018-03-18T07:05:03.122Z,99787.48
2018-03-18T07:06:05.612Z,99793.34
2018-03-18T07:07:08.102Z,99802.17
2018-03-18T07:08:10.610Z,99797.19
2018-03-18T07:09:13.104Z,99797.48
2018-03-18T07:10:15.611Z,99793.66
2018-03-18T07:11:18.105Z,99789.63
2018-03-18T07:12:20.604Z,99794.27
2018-03-18T07:13:23.107Z,99789.13
2018-03-18T07:14:25.620Z,99803.86
2018-03-18T07:15:28.150Z,99798.75
2018-03-18T07:16:30.653Z,99802.81
2018-03-18T07:17:33.156Z,99800.99
2018-03-18T07:18:35.679Z,99795.86
2018-03-18T07:19:38.162Z,99802.90
2018-03-18T07:20:40.702Z,99807.48
2018-03-18T07:21:43.215Z,99796.75
2018-03-18T07:22:45.707Z,99811.67
2018-03-18T07:23:48.230Z,99808.07
2018-03-18T07:24:50.726Z,99805.77
2018-03-18T07:25:53.244Z,99808.22
2018-03-18T07:26:56.107Z,99810.62
2018-03-18T07:27:58.694Z,99811.42
2018-03-18T07:29:01.291Z,99812.97
2018-03-18T07:30:03.795Z,99811.14
2018-03-18T07:31:06.316Z,99808.92
2018-03-18T07:32:08.835Z,99815.41
2018-03-18T07:33:11.356Z,99814.95
2018-03-18T07:34:13.850Z,99816.25
2018-03-18T07:35:16.330Z,99817.41
2018-03-18T07:36:18.844Z,99817.90
2018-03-18T07:37:21.353Z,99814.12
2018-03-18T07:38:23.853Z,99804.61
2018-03-18T07:39:26.370Z,99815.63
2018-03-18T07:40:28.868Z,99813.97
2018-03-18T07:41:31.384Z,99810.72
2018-03-18T07:42:33.891Z,99818.44
2018-03-18T07:43:36.406Z,99823.05
2018-03-18T07:44:38.915Z,99820.99
2018-03-18T07:45:44.689Z,99823.42
2018-03-18T07:46:47.340Z,99824.03
2018-03-18T07:47:49.846Z,99815.44
2018-03-18T07:48:52.346Z,99828.13
2018-03-18T07:49:54.846Z,99826.24
2018-03-18T07:50:57.347Z,99821.00
2018-03-18T07:51:59.883Z,99824.05
2018-03-18T07:53:02.393Z,99827.72
2018-03-18T07:54:04.883Z,99829.05
2018-03-18T07:55:07.398Z,99833.30
2018-03-18T07:56:09.904Z,99829.72
2018-03-18T07:57:12.448Z,99834.66
2018-03-18T07:58:14.955Z,99834.30
2018-03-18T07:59:17.479Z,99830.86
2018-03-18T08:00:20.003Z,99828.94
2018-03-18T08:01:22.509Z,99829.94
2018-03-18T08:03:33.869Z,99844.12
2018-03-18T08:04:36.377Z,99841.20
2018-03-18T08:05:38.881Z,99837.48
2018-03-18T08:06:41.406Z,99836.89
2018-03-18T08:07:43.950Z,99837.78
2018-03-18T08:08:46.438Z,99835.52
2018-03-18T08:09:48.936Z,99839.67
2018-03-18T08:10:51.454Z,99839.75
2018-03-18T08:11:53.961Z,99843.15
2018-03-18T08:12:56.478Z,99840.06
2018-03-18T08:13:58.984Z,99834.30
2018-03-18T08:15:01.508Z,99836.74
2018-03-18T08:16:04.026Z,99839.58
2018-03-18T08:17:06.709Z,99846.53
2018-03-18T08:18:09.104Z,99851.20
2018-03-18T08:19:11.626Z,99847.42
2018-03-18T08:20:14.148Z,99840.00
2018-03-18T08:21:16.674Z,99847.42
2018-03-18T08:22:19.362Z,99847.19
2018-03-18T08:23:21.871Z,99850.52
2018-03-18T08:24:24.400Z,99847.55
2018-03-18T08:25:26.932Z,99847.70
2018-03-18T08:26:29.445Z,99839.41
2018-03-18T08:27:31.950Z,99849.80
2018-03-18T08:28:34.469Z,99845.78
2018-03-18T08:29:36.995Z,99850.06
2018-03-18T08:30:39.520Z,99856.11
2018-03-18T08:31:42.057Z,99849.73
2018-03-18T08:32:44.556Z,99851.00
2018-03-18T08:33:47.074Z,99852.38
2018-03-18T08:34:49.572Z,99850.00
2018-03-18T08:35:52.092Z,99849.48
2018-03-18T08:36:54.599Z,99844.62
2018-03-18T08:37:57.110Z,99848.84
2018-03-18T08:38:59.653Z,99840.95
2018-03-18T08:40:02.192Z,99859.72
2018-03-18T08:41:04.679Z,99858.69
2018-03-18T08:42:07.202Z,99849.52
2018-03-18T08:43:09.705Z,99849.09
2018-03-18T08:44:12.250Z,99845.62
2018-03-18T08:45:14.752Z,99847.45
2018-03-18T08:46:17.258Z,99842.57
2018-03-18T08:47:19.760Z,99858.13
2018-03-18T08:48:22.256Z,99861.72
2018-03-18T08:49:24.782Z,99844.90
2018-03-18T08:50:27.369Z,99856.55
2018-03-18T08:51:29.874Z,99849.96
2018-03-18T08:52:32.392Z,99855.41
2018-03-18T08:53:34.922Z,99853.56
2018-03-18T08:54:37.406Z,99854.45
2018-03-18T08:55:40.039Z,99859.66
2018-03-18T08:56:42.993Z,99856.16
2018-03-18T08:57:46.528Z,99857.13
2018-03-18T08:58:49.075Z,99870.34
2018-03-18T08:59:51.562Z,99863.55
2018-03-18T09:00:54.089Z,99859.19
2018-03-18T09:01:56.945Z,99863.20
2018-03-18T09:02:59.609Z,99858.03
2018-03-18T09:04:02.185Z,99865.88
2018-03-18T09:05:04.864Z,99864.63
2018-03-18T09:06:07.369Z,99861.20
2018-03-18T09:07:10.407Z,99869.52
2018-03-18T09:08:13.107Z,99864.23
2018-03-18T09:09:15.628Z,99866.98
2018-03-18T09:10:18.128Z,99872.90
2018-03-18T09:11:20.629Z,99863.20
2018-03-18T09:12:23.166Z,99863.38
2018-03-18T09:13:26.584Z,99860.45
2018-03-18T09:14:29.321Z,99867.16
2018-03-18T09:15:31.817Z,99872.02
2018-03-18T09:16:34.307Z,99863.77
2018-03-18T09:17:36.809Z,99874.53
2018-03-18T09:18:39.311Z,99869.17
2018-03-18T09:19:41.818Z,99865.61
2018-03-18T09:20:44.643Z,99862.16
2018-03-18T09:21:47.612Z,99865.98
2018-03-18T09:22:50.102Z,99870.34
2018-03-18T09:23:52.586Z,99866.25
2018-03-18T09:24:55.112Z,99866.03
2018-03-18T09:25:57.749Z,99871.19
2018-03-18T09:27:00.408Z,99868.16
2018-03-18T09:28:03.253Z,99863.58
2018-03-18T09:29:05.876Z,99862.60
2018-03-18T09:30:08.630Z,99867.94
2018-03-18T09:31:11.156Z,99867.19
2018-03-18T09:32:13.665Z,99866.08
2018-03-18T09:33:16.167Z,99865.58
2018-03-18T09:34:18.702Z,99867.55
2018-03-18T09:35:21.242Z,99868.67
2018-03-18T09:36:23.753Z,99870.70
2018-03-18T09:37:26.268Z,99872.13
2018-03-18T09:38:28.763Z,99867.45
2018-03-18T09:39:31.278Z,99868.44
2018-03-18T09:40:33.824Z,99868.03
2018-03-18T09:41:36.347Z,99872.92
2018-03-18T09:42:38.863Z,99874.84
2018-03-18T09:43:41.375Z,99866.39
2018-03-18T09:44:43.939Z,99865.64
2018-03-18T09:45:46.816Z,99872.66
2018-03-18T09:46:49.312Z,99869.33
2018-03-18T09:47:52.185Z,99857.95
2018-03-18T09:48:58.174Z,99863.69
2018-03-18T09:50:00.856Z,99863.67
2018-03-18T09:51:03.379Z,99863.46
2018-03-18T09:52:05.873Z,99856.44
2018-03-18T09:53:08.368Z,99861.02
2018-03-18T09:54:10.877Z,99862.74
2018-03-18T09:55:13.372Z,99866.30
2018-03-18T09:56:15.882Z,99860.20
2018-03-18T09:57:18.419Z,99858.25
2018-03-18T09:58:20.919Z,99853.71
2018-03-18T09:59:23.414Z,99860.73
2018-03-18T10:00:25.898Z,99864.66
2018-03-18T10:01:28.444Z,99855.68
2018-03-18T10:02:30.981Z,99855.37
2018-03-18T10:03:33.449Z,99859.05
2018-03-18T10:04:35.958Z,99865.81
2018-03-18T10:05:38.472Z,99863.19
2018-03-18T10:06:41.015Z,99864.13
2018-03-18T10:07:43.521Z,99866.79
2018-03-18T10:08:46.023Z,99864.20
2018-03-18T10:09:48.546Z,99863.86
2018-03-18T10:10:54.965Z,99864.39
2018-03-18T10:12:01.582Z,99866.70
2018-03-18T10:13:07.285Z,99870.38
2018-03-18T10:14:10.143Z,99869.14
2018-03-18T10:15:12.692Z,99870.16
2018-03-18T10:16:15.260Z,99866.73
2018-03-18T10:17:17.777Z,99872.91
2018-03-18T10:18:20.302Z,99874.01
2018-03-18T10:19:22.812Z,99869.34
2018-03-18T10:20:25.325Z,99868.09
2018-03-18T10:21:27.835Z,99871.20
2018-03-18T10:23:27.161Z,99865.96
2018-03-18T10:24:31.872Z,99873.05
2018-03-18T10:25:36.059Z,99867.36
2018-03-18T10:26:43.656Z,99869.45
2018-03-18T10:27:48.423Z,99871.37
2018-03-18T10:28:53.677Z,99876.26
2018-03-18T10:29:59.141Z,99871.86
2018-03-18T10:31:19.991Z,99874.53
2018-03-18T10:32:22.478Z,99873.38
2018-03-18T10:33:24.974Z,99871.60
2018-03-18T10:34:27.469Z,99870.63
2018-03-18T10:35:29.959Z,99863.28
2018-03-18T10:36:32.454Z,99876.22
2018-03-18T10:37:34.962Z,99873.82
2018-03-18T10:38:37.502Z,99868.44
2018-03-18T10:39:40.003Z,99865.23
2018-03-18T10:40:42.561Z,99862.13
2018-03-18T10:41:45.112Z,99871.91
2018-03-18T10:42:47.604Z,99871.63
2018-03-18T10:43:50.114Z,99868.30
2018-03-18T10:44:52.604Z,99864.97
2018-03-18T10:45:55.090Z,99875.28
2018-03-18T10:46:57.588Z,99880.97
2018-03-18T10:48:00.075Z,99875.55
2018-03-18T10:49:02.582Z,99876.27
2018-03-18T10:50:05.096Z,99874.19
2018-03-18T10:51:07.600Z,99867.59
2018-03-18T10:52:10.103Z,99873.15
2018-03-18T10:53:12.641Z,99861.01
2018-03-18T10:54:15.191Z,99863.19
2018-03-18T10:55:17.852Z,99864.56
2018-03-18T10:56:21.374Z,99863.36
2018-03-18T10:57:25.369Z,99869.81
2018-03-18T10:58:28.340Z,99869.81
2018-03-18T10:59:31.204Z,99880.00
2018-03-18T11:00:39.804Z,99877.91
2018-03-18T11:01:48.517Z,99880.98
2018-03-18T11:02:54.954Z,99870.88
2018-03-18T11:04:04.757Z,99875.11
2018-03-18T11:05:08.073Z,99863.50
2018-03-18T11:06:11.664Z,99868.74
2018-03-18T11:07:14.520Z,99867.19
2018-03-18T11:08:21.217Z,99868.21
2018-03-18T11:09:26.033Z,99868.93
2018-03-18T11:10:33.591Z,99869.47
2018-03-18T11:11:39.212Z,99861.58
2018-03-18T11:12:45.805Z,99863.90
2018-03-18T11:13:53.235Z,99860.23
2018-03-18T11:16:29.970Z,99856.55
2018-03-18T11:18:52.253Z,99860.76
2018-03-18T11:20:04.292Z,99858.76
2018-03-18T11:21:12.584Z,99860.41
2018-03-18T11:22:35.510Z,99860.23
2018-03-18T11:23:47.463Z,99867.94
2018-03-18T11:25:24.747Z,99866.73
2018-03-18T11:26:51.602Z,99864.70
2018-03-18T11:28:06.039Z,99859.77
2018-03-18T11:29:22.981Z,99859.77
2018-03-18T11:30:25.946Z,99854.20
2018-03-18T11:31:31.716Z,99857.53
2018-03-18T11:32:42.925Z,99856.52
2018-03-18T11:35:07.588Z,99848.37
2018-03-18T11:37:46.683Z,99851.09
2018-03-18T11:38:49.592Z,99853.56
2018-03-18T11:40:01.407Z,99860.76
2018-03-18T11:41:08.654Z,99853.68
2018-03-18T11:42:17.193Z,99850.43
2018-03-18T11:43:20.253Z,99853.27
2018-03-18T11:44:22.762Z,99850.55
2018-03-18T11:45:25.257Z,99849.79
2018-03-18T11:46:27.764Z,99848.63
2018-03-18T11:47:36.425Z,99848.14
2018-03-18T11:48:39.137Z,99851.41
2018-03-18T11:49:41.831Z,99850.97
2018-03-18T11:50:44.360Z,99857.59
2018-03-18T11:51:46.880Z,99857.16
2018-03-18T11:52:49.415Z,99847.41
2018-03-18T11:53:52.016Z,99851.50
2018-03-18T11:54:54.583Z,99847.33
2018-03-18T11:55:57.174Z,99848.73
2018-03-18T11:56:59.975Z,99851.22
2018-03-18T11:58:02.485Z,99858.61
2018-03-18T11:59:04.970Z,99851.05
2018-03-18T12:00:07.489Z,99851.32
2018-03-18T12:01:10.001Z,99858.44
2018-03-18T12:03:03.966Z,99858.73
2018-03-18T12:04:15.240Z,99853.18
2018-03-18T12:05:19.449Z,99855.23
2018-03-18T12:06:35.039Z,99849.61
2018-03-18T12:07:37.539Z,99857.38
2018-03-18T12:08:53.121Z,99855.59
2018-03-18T12:09:58.171Z,99856.14
2018-03-18T12:11:00.672Z,99858.10
2018-03-18T12:12:04.052Z,99856.50
2018-03-18T12:13:06.561Z,99856.50
2018-03-18T12:14:09.059Z,99848.91
2018-03-18T12:15:11.587Z,99849.84
2018-03-18T12:18:03.519Z,99857.28
2018-03-18T12:20:35.707Z,99853.94
2018-03-18T12:22:05.985Z,99858.21
2018-03-18T12:23:12.913Z,99852.30
2018-03-18T12:24:16.088Z,99852.74
2018-03-18T12:25:29.391Z,99844.30
2018-03-18T12:26:33.035Z,99844.96
2018-03-18T12:27:35.864Z,99847.59
2018-03-18T12:28:40.348Z,99844.25
2018-03-18T12:29:46.095Z,99842.12
2018-03-18T12:30:48.639Z,99844.59
2018-03-18T12:31:54.493Z,99844.19
2018-03-18T12:33:12.237Z,99848.86